sensor_id;sensor_type;location;lat;lon;timestamp;pressure;altitude;pressure_sealevel;temperature;humidity
19672;BME280;9983;51.114;13.788;2023-02-02T00:01:52;99024.03;;;4.36;100.00
19672;BME280;9983;51.114;13.788;2023-02-02T00:06:53;99005.25;;;4.20;100.00
19672;BME280;9983;51.114;13.788;2023-02-02T00:11:57;99016.84;;;4.19;100.00
19672;BME280;9983;51.114;13.788;2023-02-02T00:16:58;99016.81;;;3.92;100.00
19672;BME280;9983;51.114;13.788;2023-02-02T00:21:58;99017.59;;;4.02;100.00
19672;BME280;9983;51.114;13.788;2023-02-02T00:26:59;99014.81;;;4.03;100.00
19672;BME280;9983;51.114;13.788;2023-02-02T00:31:59;99006.88;;;4.31;100.00
19672;BME280;9983;51.114;13.788;2023-02-02T00:36:59;99011.84;;;4.16;100.00
19672;BME280;9983;51.114;13.788;2023-02-02T00:42:00;99007.44;;;4.34;100.00
19672;BME280;9983;51.114;13.788;2023-02-02T00:47:01;99004.97;;;4.23;100.00
19672;BME280;9983;51.114;13.788;2023-02-02T00:52:01;99005.66;;;4.52;100.00
19672;BME280;9983;51.114;13.788;2023-02-02T00:57:02;99002.16;;;4.25;100.00
19672;BME280;9983;51.114;13.788;2023-02-02T01:02:02;98991.81;;;4.31;100.00
19672;BME280;9983;51.114;13.788;2023-02-02T01:07:02;99008.00;;;4.28;100.00
19672;BME280;9983;51.114;13.788;2023-02-02T01:12:03;99004.38;;;4.29;100.00
19672;BME280;9983;51.114;13.788;2023-02-02T01:17:03;99001.50;;;4.50;100.00
19672;BME280;9983;51.114;13.788;2023-02-02T01:22:04;99006.84;;;4.40;100.00
19672;BME280;9983;51.114;13.788;2023-02-02T01:27:04;99021.97;;;4.30;100.00
19672;BME280;9983;51.114;13.788;2023-02-02T01:32:05;99005.16;;;4.39;100.00
19672;BME280;9983;51.114;13.788;2023-02-02T01:37:05;99008.75;;;4.11;100.00
19672;BME280;9983;51.114;13.788;2023-02-02T01:42:13;98998.84;;;4.13;100.00
19672;BME280;9983;51.114;13.788;2023-02-02T01:47:14;98993.16;;;4.35;100.00
19672;BME280;9983;51.114;13.788;2023-02-02T01:52:16;98987.16;;;4.61;100.00
19672;BME280;9983;51.114;13.788;2023-02-02T01:57:27;98995.19;;;4.24;100.00
19672;BME280;9983;51.114;13.788;2023-02-02T02:02:29;98980.59;;;4.37;100.00
19672;BME280;9983;51.114;13.788;2023-02-02T02:07:31;99003.72;;;4.45;100.00
19672;BME280;9983;51.114;13.788;2023-02-02T02:12:31;98996.31;;;4.21;100.00
19672;BME280;9983;51.114;13.788;2023-02-02T02:18:03;99000.06;;;4.55;100.00
19672;BME280;9983;51.114;13.788;2023-02-02T02:23:31;98990.03;;;4.49;100.00
19672;BME280;9983;51.114;13.788;2023-02-02T02:29:10;98990.31;;;4.46;100.00
19672;BME280;9983;51.114;13.788;2023-02-02T02:39:46;98996.03;;;4.51;100.00
19672;BME280;9983;51.114;13.788;2023-02-02T02:44:48;98987.47;;;4.57;100.00
19672;BME280;9983;51.114;13.788;2023-02-02T02:49:49;98992.47;;;4.61;100.00
19672;BME280;9983;51.114;13.788;2023-02-02T02:54:53;98999.16;;;4.65;100.00
19672;BME280;9983;51.114;13.788;2023-02-02T03:05:32;98998.63;;;4.61;100.00
19672;BME280;9983;51.114;13.788;2023-02-02T03:10:37;99003.19;;;4.69;100.00
19672;BME280;9983;51.114;13.788;2023-02-02T03:15:41;99001.63;;;4.76;100.00
19672;BME280;9983;51.114;13.788;2023-02-02T03:20:42;99005.72;;;4.88;100.00
19672;BME280;9983;51.114;13.788;2023-02-02T03:25:43;99007.53;;;4.87;100.00
19672;BME280;9983;51.114;13.788;2023-02-02T03:30:45;99000.53;;;4.69;100.00
19672;BME280;9983;51.114;13.788;2023-02-02T03:35:46;99009.69;;;4.56;100.00
19672;BME280;9983;51.114;13.788;2023-02-02T03:40:47;99011.63;;;4.82;100.00
19672;BME280;9983;51.114;13.788;2023-02-02T03:45:47;99019.97;;;4.87;100.00
19672;BME280;9983;51.114;13.788;2023-02-02T03:50:54;99019.88;;;4.79;100.00
19672;BME280;9983;51.114;13.788;2023-02-02T03:55:54;99018.31;;;4.86;100.00
19672;BME280;9983;51.114;13.788;2023-02-02T04:01:02;99018.31;;;4.86;100.00
19672;BME280;9983;51.114;13.788;2023-02-02T04:06:02;99024.28;;;4.70;100.00
19672;BME280;9983;51.114;13.788;2023-02-02T04:11:03;99035.72;;;4.71;100.00
19672;BME280;9983;51.114;13.788;2023-02-02T04:16:03;99045.28;;;4.64;100.00
19672;BME280;9983;51.114;13.788;2023-02-02T04:21:05;99049.06;;;4.61;100.00
19672;BME280;9983;51.114;13.788;2023-02-02T04:26:06;99047.44;;;4.78;100.00
19672;BME280;9983;51.114;13.788;2023-02-02T04:31:06;99056.78;;;4.82;100.00
19672;BME280;9983;51.114;13.788;2023-02-02T04:36:07;99068.09;;;4.84;100.00
19672;BME280;9983;51.114;13.788;2023-02-02T04:41:13;99053.94;;;4.66;100.00
19672;BME280;9983;51.114;13.788;2023-02-02T04:46:13;99053.69;;;4.59;100.00
19672;BME280;9983;51.114;13.788;2023-02-02T04:51:14;99072.91;;;4.71;100.00
19672;BME280;9983;51.114;13.788;2023-02-02T04:56:17;99067.16;;;4.48;100.00
19672;BME280;9983;51.114;13.788;2023-02-02T05:01:18;99084.38;;;4.71;100.00
19672;BME280;9983;51.114;13.788;2023-02-02T05:06:19;99083.72;;;4.87;100.00
19672;BME280;9983;51.114;13.788;2023-02-02T05:11:21;99087.16;;;4.70;100.00
19672;BME280;9983;51.114;13.788;2023-02-02T05:16:22;99101.03;;;4.91;100.00
19672;BME280;9983;51.114;13.788;2023-02-02T05:21:23;99116.09;;;4.73;100.00
19672;BME280;9983;51.114;13.788;2023-02-02T05:26:25;99100.50;;;4.87;100.00
19672;BME280;9983;51.114;13.788;2023-02-02T05:31:25;99109.75;;;4.83;100.00
19672;BME280;9983;51.114;13.788;2023-02-02T05:36:26;99126.53;;;4.84;100.00
19672;BME280;9983;51.114;13.788;2023-02-02T05:41:27;99125.16;;;4.70;100.00
19672;BME280;9983;51.114;13.788;2023-02-02T05:46:27;99140.19;;;4.89;100.00
19672;BME280;9983;51.114;13.788;2023-02-02T05:51:31;99147.88;;;4.92;100.00
19672;BME280;9983;51.114;13.788;2023-02-02T05:56:32;99156.94;;;4.99;100.00
19672;BME280;9983;51.114;13.788;2023-02-02T06:01:32;99161.00;;;5.21;100.00
19672;BME280;9983;51.114;13.788;2023-02-02T06:06:33;99150.22;;;4.95;100.00
19672;BME280;9983;51.114;13.788;2023-02-02T06:11:34;99165.50;;;4.93;100.00
19672;BME280;9983;51.114;13.788;2023-02-02T06:16:34;99176.03;;;4.85;100.00
19672;BME280;9983;51.114;13.788;2023-02-02T06:21:35;99179.13;;;4.71;100.00
19672;BME280;9983;51.114;13.788;2023-02-02T06:26:35;99189.50;;;4.54;100.00
19672;BME280;9983;51.114;13.788;2023-02-02T06:31:35;99186.38;;;4.69;100.00
19672;BME280;9983;51.114;13.788;2023-02-02T06:36:35;99202.66;;;4.56;100.00
19672;BME280;9983;51.114;13.788;2023-02-02T06:41:36;99202.88;;;4.72;100.00
19672;BME280;9983;51.114;13.788;2023-02-02T06:46:36;99209.41;;;4.78;100.00
19672;BME280;9983;51.114;13.788;2023-02-02T06:51:36;99208.03;;;4.83;100.00
19672;BME280;9983;51.114;13.788;2023-02-02T06:56:36;99219.13;;;4.60;100.00
19672;BME280;9983;51.114;13.788;2023-02-02T07:01:37;99224.09;;;4.82;100.00
19672;BME280;9983;51.114;13.788;2023-02-02T07:06:37;99228.44;;;4.83;100.00
19672;BME280;9983;51.114;13.788;2023-02-02T07:11:38;99243.06;;;4.96;100.00
19672;BME280;9983;51.114;13.788;2023-02-02T07:16:39;99237.50;;;4.90;100.00
19672;BME280;9983;51.114;13.788;2023-02-02T07:21:39;99239.19;;;4.91;100.00
19672;BME280;9983;51.114;13.788;2023-02-02T07:26:39;99242.22;;;4.96;100.00
19672;BME280;9983;51.114;13.788;2023-02-02T07:31:40;99250.38;;;4.85;100.00
19672;BME280;9983;51.114;13.788;2023-02-02T07:36:40;99267.97;;;4.86;100.00
19672;BME280;9983;51.114;13.788;2023-02-02T07:41:40;99274.97;;;4.87;100.00
19672;BME280;9983;51.114;13.788;2023-02-02T07:46:44;99267.91;;;4.68;100.00
19672;BME280;9983;51.114;13.788;2023-02-02T07:51:44;99281.69;;;4.91;100.00
19672;BME280;9983;51.114;13.788;2023-02-02T07:56:48;99278.59;;;4.86;100.00
19672;BME280;9983;51.114;13.788;2023-02-02T08:01:48;99293.69;;;4.85;100.00
19672;BME280;9983;51.114;13.788;2023-02-02T08:06:48;99290.28;;;5.03;100.00
19672;BME280;9983;51.114;13.788;2023-02-02T08:11:49;99295.19;;;5.07;100.00
19672;BME280;9983;51.114;13.788;2023-02-02T08:16:49;99296.44;;;5.03;100.00
19672;BME280;9983;51.114;13.788;2023-02-02T08:21:49;99304.47;;;5.30;100.00
19672;BME280;9983;51.114;13.788;2023-02-02T08:26:49;99316.53;;;5.25;100.00
19672;BME280;9983;51.114;13.788;2023-02-02T08:31:50;99329.41;;;5.20;100.00
19672;BME280;9983;51.114;13.788;2023-02-02T08:36:50;99327.69;;;5.28;100.00
19672;BME280;9983;51.114;13.788;2023-02-02T08:41:54;99325.75;;;5.30;100.00
19672;BME280;9983;51.114;13.788;2023-02-02T08:46:54;99330.69;;;5.53;100.00
19672;BME280;9983;51.114;13.788;2023-02-02T08:51:54;99336.91;;;5.44;100.00
19672;BME280;9983;51.114;13.788;2023-02-02T08:56:55;99349.50;;;5.42;100.00
19672;BME280;9983;51.114;13.788;2023-02-02T09:01:56;99353.50;;;5.18;100.00
19672;BME280;9983;51.114;13.788;2023-02-02T09:06:56;99353.03;;;5.32;100.00
19672;BME280;9983;51.114;13.788;2023-02-02T09:11:57;99369.34;;;4.91;100.00
19672;BME280;9983;51.114;13.788;2023-02-02T09:16:57;99370.56;;;5.53;100.00
19672;BME280;9983;51.114;13.788;2023-02-02T09:21:57;99375.31;;;5.12;100.00
19672;BME280;9983;51.114;13.788;2023-02-02T09:26:57;99372.63;;;5.31;100.00
19672;BME280;9983;51.114;13.788;2023-02-02T09:31:58;99383.41;;;5.20;100.00
19672;BME280;9983;51.114;13.788;2023-02-02T09:36:58;99390.13;;;5.24;100.00
19672;BME280;9983;51.114;13.788;2023-02-02T09:42:27;99399.78;;;5.16;100.00
19672;BME280;9983;51.114;13.788;2023-02-02T09:47:52;99403.41;;;5.24;100.00
19672;BME280;9983;51.114;13.788;2023-02-02T09:53:14;99413.06;;;5.16;100.00
19672;BME280;9983;51.114;13.788;2023-02-02T09:58:35;99422.53;;;5.38;100.00
19672;BME280;9983;51.114;13.788;2023-02-02T10:03:42;99423.38;;;5.48;100.00
19672;BME280;9983;51.114;13.788;2023-02-02T10:08:48;99429.69;;;5.27;100.00
19672;BME280;9983;51.114;13.788;2023-02-02T10:13:53;99437.63;;;5.47;100.00
19672;BME280;9983;51.114;13.788;2023-02-02T10:19:02;99424.69;;;5.71;100.00
19672;BME280;9983;51.114;13.788;2023-02-02T10:24:03;99413.22;;;5.61;100.00
19672;BME280;9983;51.114;13.788;2023-02-02T10:34:43;99433.59;;;5.43;100.00
19672;BME280;9983;51.114;13.788;2023-02-02T10:40:02;99437.66;;;5.27;100.00
19672;BME280;9983;51.114;13.788;2023-02-02T11:00:29;99465.13;;;5.18;100.00
19672;BME280;9983;51.114;13.788;2023-02-02T11:05:31;99457.81;;;5.20;100.00
19672;BME280;9983;51.114;13.788;2023-02-02T11:10:51;99463.44;;;5.17;100.00
19672;BME280;9983;51.114;13.788;2023-02-02T11:21:33;99444.59;;;5.67;100.00
19672;BME280;9983;51.114;13.788;2023-02-02T11:26:48;99457.22;;;5.55;100.00
19672;BME280;9983;51.114;13.788;2023-02-02T11:31:49;99449.34;;;5.63;100.00
19672;BME280;9983;51.114;13.788;2023-02-02T11:42:01;99456.69;;;5.42;100.00
19672;BME280;9983;51.114;13.788;2023-02-02T11:47:03;99459.34;;;5.42;100.00
19672;BME280;9983;51.114;13.788;2023-02-02T11:52:06;99472.31;;;5.55;100.00
19672;BME280;9983;51.114;13.788;2023-02-02T11:57:22;99469.19;;;5.88;100.00
19672;BME280;9983;51.114;13.788;2023-02-02T12:02:25;99472.28;;;5.74;100.00
19672;BME280;9983;51.114;13.788;2023-02-02T12:07:28;99473.38;;;5.81;100.00
19672;BME280;9983;51.114;13.788;2023-02-02T12:12:46;99469.16;;;5.98;100.00
19672;BME280;9983;51.114;13.788;2023-02-02T12:17:55;99492.91;;;6.19;100.00
19672;BME280;9983;51.114;13.788;2023-02-02T12:23:10;99486.88;;;6.17;100.00
19672;BME280;9983;51.114;13.788;2023-02-02T12:28:28;99485.09;;;6.07;100.00
19672;BME280;9983;51.114;13.788;2023-02-02T12:33:53;99494.16;;;6.52;100.00
19672;BME280;9983;51.114;13.788;2023-02-02T12:39:08;99490.03;;;6.30;100.00
19672;BME280;9983;51.114;13.788;2023-02-02T12:49:38;99495.06;;;6.33;100.00
19672;BME280;9983;51.114;13.788;2023-02-02T12:55:09;99501.00;;;6.27;100.00
19672;BME280;9983;51.114;13.788;2023-02-02T13:00:44;99501.56;;;6.75;100.00
19672;BME280;9983;51.114;13.788;2023-02-02T13:06:08;99500.16;;;6.99;100.00
19672;BME280;9983;51.114;13.788;2023-02-02T13:11:14;99512.53;;;6.72;100.00
19672;BME280;9983;51.114;13.788;2023-02-02T13:16:30;99517.75;;;6.92;100.00
19672;BME280;9983;51.114;13.788;2023-02-02T13:21:31;99519.53;;;6.19;100.00
19672;BME280;9983;51.114;13.788;2023-02-02T13:26:37;99526.81;;;6.17;100.00
19672;BME280;9983;51.114;13.788;2023-02-02T13:31:47;99529.00;;;6.31;100.00
19672;BME280;9983;51.114;13.788;2023-02-02T13:36:54;99534.66;;;6.18;100.00
19672;BME280;9983;51.114;13.788;2023-02-02T13:41:55;99545.56;;;6.25;100.00
19672;BME280;9983;51.114;13.788;2023-02-02T13:47:05;99551.88;;;6.24;100.00
19672;BME280;9983;51.114;13.788;2023-02-02T13:52:40;99561.41;;;6.17;100.00
19672;BME280;9983;51.114;13.788;2023-02-02T13:58:06;99567.75;;;6.06;100.00
19672;BME280;9983;51.114;13.788;2023-02-02T14:03:33;99575.75;;;6.43;100.00
19672;BME280;9983;51.114;13.788;2023-02-02T14:08:44;99594.41;;;6.43;100.00
19672;BME280;9983;51.114;13.788;2023-02-02T14:13:48;99609.78;;;5.83;100.00
19672;BME280;9983;51.114;13.788;2023-02-02T14:34:37;99619.75;;;6.47;100.00
19672;BME280;9983;51.114;13.788;2023-02-02T14:50:21;99643.34;;;6.23;100.00
19672;BME280;9983;51.114;13.788;2023-02-02T14:55:23;99675.03;;;6.06;100.00
19672;BME280;9983;51.114;13.788;2023-02-02T15:00:29;99672.53;;;5.95;100.00
19672;BME280;9983;51.114;13.788;2023-02-02T15:15:46;99687.88;;;6.40;100.00
19672;BME280;9983;51.114;13.788;2023-02-02T15:20:48;99699.41;;;6.21;100.00
19672;BME280;9983;51.114;13.788;2023-02-02T15:26:16;99705.28;;;6.25;100.00
19672;BME280;9983;51.114;13.788;2023-02-02T15:31:33;99717.06;;;6.22;100.00
19672;BME280;9983;51.114;13.788;2023-02-02T15:36:38;99762.72;;;5.98;100.00
19672;BME280;9983;51.114;13.788;2023-02-02T15:41:43;99773.00;;;5.63;100.00
19672;BME280;9983;51.114;13.788;2023-02-02T15:46:45;99762.56;;;5.41;100.00
19672;BME280;9983;51.114;13.788;2023-02-02T15:51:48;99769.97;;;5.77;100.00
19672;BME280;9983;51.114;13.788;2023-02-02T15:56:49;99791.84;;;5.90;100.00
19672;BME280;9983;51.114;13.788;2023-02-02T16:02:04;99804.97;;;5.82;100.00
19672;BME280;9983;51.114;13.788;2023-02-02T16:07:21;99835.28;;;5.00;100.00
19672;BME280;9983;51.114;13.788;2023-02-02T16:12:22;99836.81;;;5.02;100.00
19672;BME280;9983;51.114;13.788;2023-02-02T16:17:27;99850.56;;;5.07;100.00
19672;BME280;9983;51.114;13.788;2023-02-02T16:22:29;99855.41;;;5.02;100.00
19672;BME280;9983;51.114;13.788;2023-02-02T16:27:30;99883.75;;;4.92;100.00
19672;BME280;9983;51.114;13.788;2023-02-02T16:32:33;99897.84;;;4.72;100.00
19672;BME280;9983;51.114;13.788;2023-02-02T16:37:35;99905.25;;;4.89;100.00
19672;BME280;9983;51.114;13.788;2023-02-02T16:42:35;99908.09;;;4.97;100.00
19672;BME280;9983;51.114;13.788;2023-02-02T16:47:37;99921.97;;;5.21;100.00
19672;BME280;9983;51.114;13.788;2023-02-02T16:52:56;99928.03;;;5.23;100.00
19672;BME280;9983;51.114;13.788;2023-02-02T16:57:57;99928.75;;;5.25;100.00
19672;BME280;9983;51.114;13.788;2023-02-02T17:03:05;99940.53;;;5.32;100.00
19672;BME280;9983;51.114;13.788;2023-02-02T17:08:06;99943.91;;;5.34;100.00
19672;BME280;9983;51.114;13.788;2023-02-02T17:18:29;99968.66;;;5.56;100.00
19672;BME280;9983;51.114;13.788;2023-02-02T17:23:30;99975.03;;;5.44;100.00
19672;BME280;9983;51.114;13.788;2023-02-02T17:28:31;99987.63;;;5.42;100.00
19672;BME280;9983;51.114;13.788;2023-02-02T17:33:33;100003.56;;;5.42;100.00
19672;BME280;9983;51.114;13.788;2023-02-02T17:38:33;100005.34;;;5.20;100.00
19672;BME280;9983;51.114;13.788;2023-02-02T17:43:34;100026.38;;;5.23;100.00
19672;BME280;9983;51.114;13.788;2023-02-02T17:48:34;100026.16;;;5.15;100.00
19672;BME280;9983;51.114;13.788;2023-02-02T17:53:35;100036.28;;;5.21;100.00
19672;BME280;9983;51.114;13.788;2023-02-02T17:58:35;100033.53;;;5.44;100.00
19672;BME280;9983;51.114;13.788;2023-02-02T18:03:37;100035.47;;;5.42;100.00
19672;BME280;9983;51.114;13.788;2023-02-02T18:08:38;100039.25;;;5.60;100.00
19672;BME280;9983;51.114;13.788;2023-02-02T18:13:41;100050.16;;;5.57;100.00
19672;BME280;9983;51.114;13.788;2023-02-02T18:18:44;100060.66;;;5.79;100.00
19672;BME280;9983;51.114;13.788;2023-02-02T18:23:46;100060.63;;;5.38;100.00
19672;BME280;9983;51.114;13.788;2023-02-02T18:28:48;100063.56;;;5.55;100.00
19672;BME280;9983;51.114;13.788;2023-02-02T18:33:49;100062.72;;;5.55;100.00
19672;BME280;9983;51.114;13.788;2023-02-02T18:38:50;100066.88;;;5.48;100.00
19672;BME280;9983;51.114;13.788;2023-02-02T18:43:53;100062.50;;;5.47;100.00
19672;BME280;9983;51.114;13.788;2023-02-02T18:48:54;100073.44;;;5.44;100.00
19672;BME280;9983;51.114;13.788;2023-02-02T18:53:54;100075.81;;;5.47;100.00
19672;BME280;9983;51.114;13.788;2023-02-02T18:58:59;100076.75;;;5.57;100.00
19672;BME280;9983;51.114;13.788;2023-02-02T19:03:59;100074.28;;;5.65;100.00
19672;BME280;9983;51.114;13.788;2023-02-02T19:09:00;100082.63;;;5.40;100.00
19672;BME280;9983;51.114;13.788;2023-02-02T19:14:00;100089.19;;;5.36;100.00
19672;BME280;9983;51.114;13.788;2023-02-02T19:19:07;100085.44;;;5.59;100.00
19672;BME280;9983;51.114;13.788;2023-02-02T19:24:12;100095.63;;;5.22;100.00
19672;BME280;9983;51.114;13.788;2023-02-02T19:29:17;100095.06;;;5.07;100.00
19672;BME280;9983;51.114;13.788;2023-02-02T19:34:20;100102.97;;;4.75;100.00
19672;BME280;9983;51.114;13.788;2023-02-02T19:39:25;100108.13;;;4.88;100.00
19672;BME280;9983;51.114;13.788;2023-02-02T19:44:30;100109.13;;;4.65;100.00
19672;BME280;9983;51.114;13.788;2023-02-02T19:49:33;100108.84;;;4.90;100.00
19672;BME280;9983;51.114;13.788;2023-02-02T19:54:37;100115.13;;;5.00;100.00
19672;BME280;9983;51.114;13.788;2023-02-02T19:59:39;100108.13;;;4.99;100.00
19672;BME280;9983;51.114;13.788;2023-02-02T20:04:41;100113.16;;;5.02;100.00
19672;BME280;9983;51.114;13.788;2023-02-02T20:09:41;100117.41;;;5.05;100.00
19672;BME280;9983;51.114;13.788;2023-02-02T20:14:42;100119.84;;;4.85;100.00
19672;BME280;9983;51.114;13.788;2023-02-02T20:19:43;100116.84;;;4.79;100.00
19672;BME280;9983;51.114;13.788;2023-02-02T20:24:44;100119.03;;;4.85;100.00
19672;BME280;9983;51.114;13.788;2023-02-02T20:29:48;100115.06;;;4.68;100.00
19672;BME280;9983;51.114;13.788;2023-02-02T20:34:49;100115.63;;;4.72;100.00
19672;BME280;9983;51.114;13.788;2023-02-02T20:39:57;100116.13;;;4.66;100.00
19672;BME280;9983;51.114;13.788;2023-02-02T20:44:57;100118.88;;;4.86;100.00
19672;BME280;9983;51.114;13.788;2023-02-02T20:49:58;100123.09;;;4.89;100.00
19672;BME280;9983;51.114;13.788;2023-02-02T20:55:00;100123.59;;;4.72;100.00
19672;BME280;9983;51.114;13.788;2023-02-02T21:00:00;100122.41;;;4.76;100.00
19672;BME280;9983;51.114;13.788;2023-02-02T21:05:00;100124.56;;;4.71;100.00
19672;BME280;9983;51.114;13.788;2023-02-02T21:10:01;100128.06;;;4.82;100.00
19672;BME280;9983;51.114;13.788;2023-02-02T21:15:01;100126.50;;;4.46;100.00
19672;BME280;9983;51.114;13.788;2023-02-02T21:20:03;100122.63;;;4.62;100.00
19672;BME280;9983;51.114;13.788;2023-02-02T21:25:03;100114.53;;;4.85;100.00
19672;BME280;9983;51.114;13.788;2023-02-02T21:30:04;100116.59;;;4.82;100.00
19672;BME280;9983;51.114;13.788;2023-02-02T21:35:05;100111.63;;;4.88;100.00
19672;BME280;9983;51.114;13.788;2023-02-02T21:40:11;100120.22;;;4.81;100.00
19672;BME280;9983;51.114;13.788;2023-02-02T21:45:35;100119.13;;;4.83;100.00
19672;BME280;9983;51.114;13.788;2023-02-02T21:50:39;100112.25;;;4.92;100.00
19672;BME280;9983;51.114;13.788;2023-02-02T21:55:40;100104.38;;;5.02;100.00
19672;BME280;9983;51.114;13.788;2023-02-02T22:00:40;100107.78;;;4.92;100.00
19672;BME280;9983;51.114;13.788;2023-02-02T22:05:41;100112.19;;;5.03;100.00
19672;BME280;9983;51.114;13.788;2023-02-02T22:10:42;100112.25;;;4.92;100.00
19672;BME280;9983;51.114;13.788;2023-02-02T22:15:44;100108.16;;;4.77;100.00
19672;BME280;9983;51.114;13.788;2023-02-02T22:20:47;100113.94;;;4.82;100.00
19672;BME280;9983;51.114;13.788;2023-02-02T22:25:53;100114.44;;;4.65;100.00
19672;BME280;9983;51.114;13.788;2023-02-02T22:30:55;100111.78;;;4.76;100.00
19672;BME280;9983;51.114;13.788;2023-02-02T22:35:56;100109.63;;;4.58;100.00
19672;BME280;9983;51.114;13.788;2023-02-02T22:40:56;100115.41;;;4.75;100.00
19672;BME280;9983;51.114;13.788;2023-02-02T22:45:56;100126.13;;;4.62;100.00
19672;BME280;9983;51.114;13.788;2023-02-02T22:50:56;100105.59;;;3.62;100.00
19672;BME280;9983;51.114;13.788;2023-02-02T22:55:57;100107.09;;;4.57;100.00
19672;BME280;9983;51.114;13.788;2023-02-02T23:00:57;100113.69;;;4.29;100.00
19672;BME280;9983;51.114;13.788;2023-02-02T23:05:57;100102.38;;;4.38;100.00
19672;BME280;9983;51.114;13.788;2023-02-02T23:10:57;100094.88;;;4.54;100.00
19672;BME280;9983;51.114;13.788;2023-02-02T23:15:58;100092.72;;;4.48;100.00
19672;BME280;9983;51.114;13.788;2023-02-02T23:20:58;100079.44;;;4.60;100.00
19672;BME280;9983;51.114;13.788;2023-02-02T23:25:58;100067.75;;;4.51;100.00
19672;BME280;9983;51.114;13.788;2023-02-02T23:30:58;100075.09;;;4.47;100.00
19672;BME280;9983;51.114;13.788;2023-02-02T23:35:59;100087.88;;;4.65;100.00
19672;BME280;9983;51.114;13.788;2023-02-02T23:40:59;100097.53;;;4.77;100.00
19672;BME280;9983;51.114;13.788;2023-02-02T23:45:59;100086.66;;;4.69;100.00
19672;BME280;9983;51.114;13.788;2023-02-02T23:51:00;100075.00;;;4.60;100.00
19672;BME280;9983;51.114;13.788;2023-02-02T23:56:00;100066.59;;;4.87;100.00
